ASA318 KSEA-KBOI
Flight info
| Callsign | ASA318 |
|---|---|
| Flight time | 0h 56m |
| Altitude | 35000 |
| Route | SUMMA2 SUMMA J54 BKE DEVLE KYAAN4 |
| Aircraft | B38M/M-SDE1FGHILORVWXY/HB1 |
Departure
| Time | 2026-05-04 14:15 |
|---|---|
| Airport | Seattle–Tacoma International Airport (KSEA) |
Arrival
| Time | 2026-05-04 15:12 |
|---|---|
| Airport | Boise Air Terminal/Gowen Field (KBOI) |
| Time | Latitude | Longitude | Altitude | Speed | Heading |
|---|---|---|---|---|---|
| 2026-05-04 13:50 | 47.44924 | -122.30441 | 410 ft | 0 kts | 105° |
| 2026-05-04 14:07 | 47.44924 | -122.30442 | 412 ft | 1 kts | 105° |
| 2026-05-04 14:07 | 47.44927 | -122.30463 | 412 ft | 3 kts | 98° |
| 2026-05-04 14:07 | 47.44928 | -122.30492 | 405 ft | 3 kts | 82° |
| 2026-05-04 14:08 | 47.44923 | -122.30519 | 406 ft | 3 kts | 57° |
| 2026-05-04 14:08 | 47.44910 | -122.30536 | 407 ft | 3 kts | 16° |
| 2026-05-04 14:08 | 47.44902 | -122.30539 | 408 ft | 0 kts | 0° |
| 2026-05-04 14:10 | 47.44907 | -122.30539 | 409 ft | 4 kts | 0° |
| 2026-05-04 14:11 | 47.44965 | -122.30538 | 411 ft | 11 kts | 1° |
| 2026-05-04 14:11 | 47.45097 | -122.30626 | 414 ft | 12 kts | 359° |
| 2026-05-04 14:11 | 47.45214 | -122.30625 | 415 ft | 21 kts | 0° |
| 2026-05-04 14:12 | 47.45371 | -122.30624 | 426 ft | 23 kts | 1° |
| 2026-05-04 14:12 | 47.45525 | -122.30623 | 424 ft | 21 kts | 0° |
| 2026-05-04 14:12 | 47.45826 | -122.30620 | 427 ft | 24 kts | 0° |
| 2026-05-04 14:13 | 47.46008 | -122.30618 | 436 ft | 29 kts | 0° |
| 2026-05-04 14:13 | 47.46212 | -122.30615 | 435 ft | 29 kts | 1° |
| 2026-05-04 14:13 | 47.46344 | -122.30619 | 439 ft | 8 kts | 347° |
| 2026-05-04 14:13 | 47.46378 | -122.30684 | 437 ft | 9 kts | 274° |
| 2026-05-04 14:14 | 47.46339 | -122.30757 | 441 ft | 11 kts | 205° |
| 2026-05-04 14:14 | 47.46223 | -122.30778 | 434 ft | 3 kts | 181° |
| 2026-05-04 14:14 | 47.46135 | -122.30779 | 435 ft | 40 kts | 180° |
| 2026-05-04 14:15 | 47.44500 | -122.30796 | 448 ft | 181 kts | 181° |
| 2026-05-04 14:15 | 47.41906 | -122.30806 | 2118 ft | 191 kts | 180° |
| 2026-05-04 14:16 | 47.38927 | -122.30845 | 3251 ft | 236 kts | 180° |
| 2026-05-04 14:16 | 47.37192 | -122.30866 | 3780 ft | 260 kts | 181° |
| 2026-05-04 14:17 | 47.33450 | -122.30899 | 5492 ft | 282 kts | 181° |
| 2026-05-04 14:17 | 47.31479 | -122.30915 | 6553 ft | 285 kts | 181° |
| 2026-05-04 14:17 | 47.27460 | -122.30950 | 8491 ft | 293 kts | 181° |
| 2026-05-04 14:18 | 47.25420 | -122.30968 | 9539 ft | 293 kts | 180° |
| 2026-05-04 14:18 | 47.21352 | -122.29547 | 10863 ft | 319 kts | 161° |
| 2026-05-04 14:19 | 47.16941 | -122.27303 | 11918 ft | 348 kts | 160° |
| 2026-05-04 14:19 | 47.14657 | -122.26120 | 12815 ft | 349 kts | 160° |
| 2026-05-04 14:19 | 47.12350 | -122.24920 | 13568 ft | 356 kts | 160° |
| 2026-05-04 14:19 | 47.10006 | -122.23698 | 14318 ft | 358 kts | 160° |
| 2026-05-04 14:20 | 47.07639 | -122.22466 | 15022 ft | 363 kts | 159° |
| 2026-05-04 14:20 | 47.05241 | -122.21218 | 15690 ft | 368 kts | 160° |
| 2026-05-04 14:20 | 47.02819 | -122.19960 | 16395 ft | 371 kts | 160° |
| 2026-05-04 14:21 | 46.97888 | -122.17401 | 17709 ft | 379 kts | 159° |
| 2026-05-04 14:21 | 46.95384 | -122.16102 | 18316 ft | 384 kts | 159° |
| 2026-05-04 14:21 | 46.92857 | -122.14794 | 18861 ft | 388 kts | 159° |
| 2026-05-04 14:21 | 46.90303 | -122.13473 | 19416 ft | 391 kts | 159° |
| 2026-05-04 14:22 | 46.87722 | -122.12140 | 19962 ft | 394 kts | 159° |
| 2026-05-04 14:22 | 46.85125 | -122.10800 | 20501 ft | 398 kts | 159° |
| 2026-05-04 14:22 | 46.82511 | -122.09452 | 21036 ft | 401 kts | 159° |
| 2026-05-04 14:22 | 46.79861 | -122.08084 | 21547 ft | 405 kts | 159° |
| 2026-05-04 14:23 | 46.74510 | -122.05337 | 22580 ft | 412 kts | 159° |
| 2026-05-04 14:23 | 46.72715 | -122.04414 | 22908 ft | 414 kts | 159° |
| 2026-05-04 14:23 | 46.69985 | -122.03015 | 23422 ft | 417 kts | 159° |
| 2026-05-04 14:24 | 46.67236 | -122.01605 | 23832 ft | 420 kts | 159° |
| 2026-05-04 14:24 | 46.64500 | -122.00103 | 24278 ft | 420 kts | 151° |
| 2026-05-04 14:24 | 46.62103 | -121.97735 | 24741 ft | 416 kts | 134° |
| 2026-05-04 14:24 | 46.60278 | -121.94494 | 25092 ft | 415 kts | 120° |
| 2026-05-04 14:25 | 46.58764 | -121.90913 | 25480 ft | 417 kts | 118° |
| 2026-05-04 14:25 | 46.55789 | -121.83608 | 26293 ft | 423 kts | 117° |
| 2026-05-04 14:25 | 46.54306 | -121.79899 | 26703 ft | 425 kts | 117° |
| 2026-05-04 14:26 | 46.52824 | -121.76170 | 27092 ft | 427 kts | 117° |
| 2026-05-04 14:26 | 46.51336 | -121.72427 | 27463 ft | 430 kts | 117° |
| 2026-05-04 14:26 | 46.49838 | -121.68662 | 27895 ft | 431 kts | 117° |
| 2026-05-04 14:26 | 46.48329 | -121.64875 | 28241 ft | 435 kts | 117° |
| 2026-05-04 14:27 | 46.46812 | -121.61074 | 28600 ft | 437 kts | 117° |
| 2026-05-04 14:27 | 46.45302 | -121.57296 | 28952 ft | 439 kts | 117° |
| 2026-05-04 14:27 | 46.43764 | -121.53453 | 29322 ft | 442 kts | 117° |
| 2026-05-04 14:27 | 46.42220 | -121.49602 | 29647 ft | 444 kts | 117° |
| 2026-05-04 14:28 | 46.40662 | -121.45721 | 30011 ft | 446 kts | 117° |
| 2026-05-04 14:28 | 46.39100 | -121.41833 | 30304 ft | 448 kts | 117° |
| 2026-05-04 14:28 | 46.37529 | -121.37931 | 30605 ft | 449 kts | 117° |
| 2026-05-04 14:28 | 46.35953 | -121.34020 | 30898 ft | 451 kts | 117° |
| 2026-05-04 14:29 | 46.32774 | -121.26151 | 31455 ft | 454 kts | 117° |
| 2026-05-04 14:29 | 46.29568 | -121.18240 | 32020 ft | 458 kts | 117° |
| 2026-05-04 14:30 | 46.27954 | -121.14264 | 32346 ft | 458 kts | 116° |
| 2026-05-04 14:30 | 46.26341 | -121.10297 | 32737 ft | 457 kts | 116° |
| 2026-05-04 14:30 | 46.23130 | -121.02418 | 33544 ft | 454 kts | 116° |
| 2026-05-04 14:31 | 46.21529 | -120.98497 | 33932 ft | 452 kts | 116° |
| 2026-05-04 14:31 | 46.18328 | -120.90675 | 34476 ft | 453 kts | 116° |
| 2026-05-04 14:32 | 46.15122 | -120.82861 | 34875 ft | 454 kts | 116° |
| 2026-05-04 14:32 | 46.11912 | -120.75063 | 34861 ft | 451 kts | 116° |
| 2026-05-04 14:33 | 46.08707 | -120.67296 | 34865 ft | 450 kts | 116° |
| 2026-05-04 14:33 | 46.05500 | -120.59548 | 34857 ft | 450 kts | 116° |
| 2026-05-04 14:34 | 46.02310 | -120.51860 | 34856 ft | 450 kts | 116° |
| 2026-05-04 14:34 | 45.99091 | -120.44127 | 34850 ft | 450 kts | 116° |
| 2026-05-04 14:35 | 45.95868 | -120.36403 | 34854 ft | 450 kts | 116° |
| 2026-05-04 14:35 | 45.92640 | -120.28689 | 34844 ft | 450 kts | 116° |
| 2026-05-04 14:36 | 45.89410 | -120.20992 | 34837 ft | 450 kts | 116° |
| 2026-05-04 14:36 | 45.86172 | -120.13296 | 34846 ft | 450 kts | 116° |
| 2026-05-04 14:37 | 45.82928 | -120.05610 | 34852 ft | 450 kts | 116° |
| 2026-05-04 14:37 | 45.79676 | -119.97923 | 34844 ft | 452 kts | 116° |
| 2026-05-04 14:38 | 45.76415 | -119.90231 | 34835 ft | 452 kts | 116° |
| 2026-05-04 14:38 | 45.73150 | -119.82551 | 34838 ft | 452 kts | 116° |
| 2026-05-04 14:39 | 45.69870 | -119.74875 | 34846 ft | 452 kts | 117° |
| 2026-05-04 14:39 | 45.66593 | -119.67212 | 34845 ft | 452 kts | 117° |
| 2026-05-04 14:40 | 45.61668 | -119.55735 | 34846 ft | 452 kts | 117° |
| 2026-05-04 14:40 | 45.58379 | -119.48096 | 34847 ft | 452 kts | 117° |
| 2026-05-04 14:41 | 45.55082 | -119.40460 | 34858 ft | 451 kts | 117° |
| 2026-05-04 14:42 | 45.48491 | -119.25255 | 34864 ft | 451 kts | 117° |
| 2026-05-04 14:42 | 45.45187 | -119.17663 | 34869 ft | 451 kts | 117° |
| 2026-05-04 14:43 | 45.41868 | -119.10061 | 34865 ft | 452 kts | 117° |
| 2026-05-04 14:43 | 45.38549 | -119.02475 | 34876 ft | 451 kts | 117° |
| 2026-05-04 14:44 | 45.35226 | -118.94903 | 34877 ft | 451 kts | 117° |
| 2026-05-04 14:44 | 45.31900 | -118.87345 | 34881 ft | 451 kts | 117° |
| 2026-05-04 14:45 | 45.28591 | -118.79843 | 34916 ft | 450 kts | 116° |
| 2026-05-04 14:45 | 45.25264 | -118.72325 | 34904 ft | 450 kts | 116° |
| 2026-05-04 14:46 | 45.21929 | -118.64806 | 34908 ft | 450 kts | 116° |
| 2026-05-04 14:46 | 45.18592 | -118.57303 | 34922 ft | 450 kts | 116° |
| 2026-05-04 14:47 | 45.15251 | -118.49810 | 34925 ft | 450 kts | 116° |
| 2026-05-04 14:47 | 45.11903 | -118.42319 | 34923 ft | 450 kts | 117° |
| 2026-05-04 14:48 | 45.08552 | -118.34844 | 34913 ft | 450 kts | 117° |
| 2026-05-04 14:48 | 45.05186 | -118.27353 | 34905 ft | 452 kts | 117° |
| 2026-05-04 14:49 | 45.01810 | -118.19862 | 34919 ft | 452 kts | 117° |
| 2026-05-04 14:49 | 44.98430 | -118.12379 | 34915 ft | 452 kts | 117° |
| 2026-05-04 14:50 | 44.95045 | -118.04907 | 34922 ft | 452 kts | 117° |
| 2026-05-04 14:50 | 44.91687 | -117.97511 | 34344 ft | 449 kts | 117° |
| 2026-05-04 14:51 | 44.89988 | -117.93774 | 33426 ft | 455 kts | 117° |
| 2026-05-04 14:51 | 44.88278 | -117.90020 | 32729 ft | 454 kts | 118° |
| 2026-05-04 14:51 | 44.86575 | -117.86281 | 32297 ft | 455 kts | 118° |
| 2026-05-04 14:51 | 44.84807 | -117.82563 | 31892 ft | 461 kts | 124° |
| 2026-05-04 14:52 | 44.82468 | -117.79419 | 31340 ft | 471 kts | 141° |
| 2026-05-04 14:52 | 44.79691 | -117.76915 | 30829 ft | 476 kts | 143° |
| 2026-05-04 14:52 | 44.76913 | -117.74377 | 30284 ft | 478 kts | 144° |
| 2026-05-04 14:52 | 44.74112 | -117.71850 | 29571 ft | 479 kts | 144° |
| 2026-05-04 14:53 | 44.71303 | -117.69329 | 28609 ft | 479 kts | 144° |
| 2026-05-04 14:53 | 44.68501 | -117.66820 | 27937 ft | 476 kts | 144° |
| 2026-05-04 14:53 | 44.65702 | -117.64316 | 27484 ft | 479 kts | 145° |
| 2026-05-04 14:53 | 44.62881 | -117.61796 | 26945 ft | 482 kts | 145° |
| 2026-05-04 14:54 | 44.60052 | -117.59271 | 26405 ft | 483 kts | 145° |
| 2026-05-04 14:54 | 44.57212 | -117.56740 | 25845 ft | 484 kts | 145° |
| 2026-05-04 14:54 | 44.54369 | -117.54209 | 25344 ft | 483 kts | 146° |
| 2026-05-04 14:54 | 44.51537 | -117.51692 | 24803 ft | 480 kts | 146° |
| 2026-05-04 14:55 | 44.48729 | -117.49197 | 24287 ft | 477 kts | 146° |
| 2026-05-04 14:55 | 44.45932 | -117.46716 | 23781 ft | 474 kts | 146° |
| 2026-05-04 14:55 | 44.43155 | -117.44255 | 23257 ft | 470 kts | 146° |
| 2026-05-04 14:55 | 44.40400 | -117.41817 | 22694 ft | 467 kts | 146° |
| 2026-05-04 14:56 | 44.37667 | -117.39401 | 22206 ft | 464 kts | 146° |
| 2026-05-04 14:56 | 44.34953 | -117.37004 | 21724 ft | 460 kts | 146° |
| 2026-05-04 14:56 | 44.32256 | -117.34625 | 21241 ft | 457 kts | 146° |
| 2026-05-04 14:56 | 44.29576 | -117.32263 | 20786 ft | 454 kts | 146° |
| 2026-05-04 14:57 | 44.26914 | -117.29920 | 20317 ft | 451 kts | 146° |
| 2026-05-04 14:57 | 44.24268 | -117.27592 | 19860 ft | 448 kts | 146° |
| 2026-05-04 14:57 | 44.21652 | -117.25281 | 19398 ft | 444 kts | 144° |
| 2026-05-04 14:57 | 44.19340 | -117.22498 | 18917 ft | 437 kts | 134° |
| 2026-05-04 14:58 | 44.17144 | -117.19579 | 18487 ft | 435 kts | 135° |
| 2026-05-04 14:58 | 44.14945 | -117.16691 | 18161 ft | 433 kts | 135° |
| 2026-05-04 14:58 | 44.12761 | -117.13831 | 17644 ft | 430 kts | 135° |
| 2026-05-04 14:58 | 44.10590 | -117.10991 | 17222 ft | 427 kts | 135° |
| 2026-05-04 14:59 | 44.08428 | -117.08166 | 16798 ft | 424 kts | 136° |
| 2026-05-04 14:59 | 44.06285 | -117.05368 | 16377 ft | 422 kts | 136° |
| 2026-05-04 14:59 | 44.02037 | -116.99833 | 15518 ft | 416 kts | 136° |
| 2026-05-04 15:00 | 43.99930 | -116.97092 | 15096 ft | 414 kts | 136° |
| 2026-05-04 15:00 | 43.97841 | -116.94376 | 14684 ft | 411 kts | 136° |
| 2026-05-04 15:00 | 43.95986 | -116.91384 | 14214 ft | 408 kts | 123° |
| 2026-05-04 15:01 | 43.92915 | -116.84933 | 13349 ft | 388 kts | 124° |
| 2026-05-04 15:01 | 43.91436 | -116.81875 | 12920 ft | 376 kts | 124° |
| 2026-05-04 15:01 | 43.89995 | -116.78906 | 12525 ft | 365 kts | 124° |
| 2026-05-04 15:01 | 43.88597 | -116.76029 | 12143 ft | 355 kts | 124° |
| 2026-05-04 15:02 | 43.87252 | -116.73265 | 11770 ft | 346 kts | 124° |
| 2026-05-04 15:02 | 43.85912 | -116.70515 | 11420 ft | 343 kts | 124° |
| 2026-05-04 15:02 | 43.84588 | -116.67798 | 11160 ft | 338 kts | 124° |
| 2026-05-04 15:02 | 43.83275 | -116.65108 | 11018 ft | 337 kts | 124° |
| 2026-05-04 15:03 | 43.81952 | -116.62435 | 10739 ft | 337 kts | 124° |
| 2026-05-04 15:03 | 43.80625 | -116.59757 | 10374 ft | 336 kts | 124° |
| 2026-05-04 15:03 | 43.79305 | -116.57099 | 10135 ft | 332 kts | 124° |
| 2026-05-04 15:03 | 43.77999 | -116.54466 | 9955 ft | 332 kts | 124° |
| 2026-05-04 15:04 | 43.76694 | -116.51838 | 9621 ft | 331 kts | 124° |
| 2026-05-04 15:04 | 43.75396 | -116.49225 | 9222 ft | 327 kts | 124° |
| 2026-05-04 15:04 | 43.74123 | -116.46667 | 8856 ft | 318 kts | 124° |
| 2026-05-04 15:04 | 43.72892 | -116.44193 | 8568 ft | 306 kts | 123° |
| 2026-05-04 15:05 | 43.71703 | -116.41809 | 8440 ft | 296 kts | 124° |
| 2026-05-04 15:05 | 43.70561 | -116.39518 | 8295 ft | 289 kts | 123° |
| 2026-05-04 15:05 | 43.69436 | -116.37266 | 8138 ft | 281 kts | 124° |
| 2026-05-04 15:05 | 43.68348 | -116.35085 | 8045 ft | 270 kts | 122° |
| 2026-05-04 15:06 | 43.67484 | -116.32862 | 8027 ft | 255 kts | 113° |
| 2026-05-04 15:06 | 43.66754 | -116.30692 | 8093 ft | 245 kts | 114° |
| 2026-05-04 15:06 | 43.66020 | -116.28565 | 8069 ft | 244 kts | 115° |
| 2026-05-04 15:07 | 43.64546 | -116.24353 | 7489 ft | 242 kts | 114° |
| 2026-05-04 15:07 | 43.63834 | -116.22274 | 7037 ft | 237 kts | 114° |
| 2026-05-04 15:07 | 43.63134 | -116.20233 | 6615 ft | 233 kts | 114° |
| 2026-05-04 15:07 | 43.62442 | -116.18224 | 6196 ft | 229 kts | 114° |
| 2026-05-04 15:08 | 43.61764 | -116.16257 | 5816 ft | 224 kts | 114° |
| 2026-05-04 15:08 | 43.61120 | -116.14398 | 5544 ft | 204 kts | 115° |
| 2026-05-04 15:08 | 43.60404 | -116.12798 | 5255 ft | 188 kts | 127° |
| 2026-05-04 15:08 | 43.59510 | -116.11632 | 5068 ft | 170 kts | 145° |
| 2026-05-04 15:09 | 43.58463 | -116.10930 | 4930 ft | 166 kts | 163° |
| 2026-05-04 15:09 | 43.57335 | -116.10676 | 4751 ft | 164 kts | 181° |
| 2026-05-04 15:09 | 43.56238 | -116.10920 | 4543 ft | 162 kts | 201° |
| 2026-05-04 15:10 | 43.54529 | -116.12789 | 3987 ft | 158 kts | 240° |
| 2026-05-04 15:10 | 43.54142 | -116.14198 | 3797 ft | 158 kts | 260° |
| 2026-05-04 15:10 | 43.54528 | -116.17144 | 3390 ft | 162 kts | 298° |
| 2026-05-04 15:11 | 43.54884 | -116.18063 | 3308 ft | 165 kts | 296° |
| 2026-05-04 15:11 | 43.55375 | -116.19508 | 3116 ft | 166 kts | 295° |
| 2026-05-04 15:11 | 43.55863 | -116.20919 | 2910 ft | 159 kts | 295° |
| 2026-05-04 15:11 | 43.56291 | -116.22172 | 2882 ft | 123 kts | 295° |
| 2026-05-04 15:12 | 43.56587 | -116.23044 | 2886 ft | 76 kts | 294° |
| 2026-05-04 15:12 | 43.56787 | -116.23627 | 2885 ft | 57 kts | 295° |
| 2026-05-04 15:12 | 43.56932 | -116.24053 | 2887 ft | 39 kts | 295° |
| 2026-05-04 15:12 | 43.57013 | -116.24193 | 2885 ft | 12 kts | 19° |
| 2026-05-04 15:13 | 43.57057 | -116.24097 | 2885 ft | 13 kts | 74° |
| 2026-05-04 15:13 | 43.57081 | -116.23970 | 2884 ft | 14 kts | 76° |
| 2026-05-04 15:13 | 43.57098 | -116.23828 | 2884 ft | 16 kts | 82° |
| 2026-05-04 15:13 | 43.57113 | -116.23676 | 2885 ft | 17 kts | 83° |
| 2026-05-04 15:14 | 43.57084 | -116.23517 | 2884 ft | 18 kts | 115° |
| 2026-05-04 15:14 | 43.57028 | -116.23358 | 2883 ft | 19 kts | 115° |
| 2026-05-04 15:14 | 43.56969 | -116.23184 | 2883 ft | 21 kts | 115° |
| 2026-05-04 15:14 | 43.56906 | -116.23000 | 2883 ft | 22 kts | 115° |
| 2026-05-04 15:15 | 43.56840 | -116.22809 | 2883 ft | 22 kts | 115° |
| 2026-05-04 15:15 | 43.56773 | -116.22611 | 2883 ft | 22 kts | 116° |
| 2026-05-04 15:15 | 43.56745 | -116.22518 | 2883 ft | 5 kts | 95° |
| 2026-05-04 15:16 | 43.56783 | -116.22459 | 2884 ft | 1 kts | 62° |
| 2026-05-04 15:16 | 43.56784 | -116.22441 | 2884 ft | 4 kts | 97° |
| 2026-05-04 15:16 | 43.56778 | -116.22424 | 2884 ft | 1 kts | 117° |
| 2026-05-04 15:17 | 43.56776 | -116.22417 | 2884 ft | 1 kts | 116° |
| 2026-05-04 15:17 | 43.56774 | -116.22413 | 2884 ft | 0 kts | 116° |